Time;durP1;ratioP1;P1;durP2;ratioP2;P2;SDS_P1;SDS_P2;PMS_P1;PMS_P2;Temp;Humidity;BMP_temperature;BMP_pressure;BME280_temperature;BME280_humidity;BME280_pressure;Samples;Min_cycle;Max_cycle;Signal;HPM_P1;HPM_P2
2021/08/05 00:00:58;;;;;;;;;5.00;5.00;;;;;18.80;64.23;100392.59;5017841;28;66263;-61
2021/08/05 00:03:23;;;;;;;;;4.50;3.25;;;;;18.77;64.28;100393.00;5017653;28;68725;-60
2021/08/05 00:05:48;;;;;;;;;4.75;4.75;;;;;18.77;64.81;100394.84;5017639;28;71519;-61
2021/08/05 00:08:14;;;;;;;;;3.75;3.00;;;;;18.76;64.32;100394.00;5018041;28;57402;-60
2021/08/05 00:10:39;;;;;;;;;5.50;4.00;;;;;18.76;64.23;100394.00;5017465;28;68397;-61
2021/08/05 00:13:04;;;;;;;;;4.00;3.00;;;;;18.76;64.40;100395.84;5017422;28;70806;-60
2021/08/05 00:15:30;;;;;;;;;4.25;3.00;;;;;18.77;64.46;100395.66;5017635;28;63027;-61
2021/08/05 00:17:55;;;;;;;;;3.25;3.00;;;;;18.79;64.75;100400.81;5018399;28;45382;-60
2021/08/05 00:20:21;;;;;;;;;4.00;4.00;;;;;18.80;64.61;100399.78;5018359;28;45293;-61
2021/08/05 00:22:46;;;;;;;;;4.00;3.00;;;;;18.80;64.60;100395.28;5018252;28;46161;-61
2021/08/05 00:25:12;;;;;;;;;3.75;3.00;;;;;18.80;64.60;100389.94;5017217;28;71847;-61
2021/08/05 00:27:37;;;;;;;;;4.75;4.00;;;;;18.83;64.64;100380.72;5018284;28;45277;-61
2021/08/05 00:30:04;;;;;;;;;7.00;7.00;;;;;18.85;64.25;100381.38;5017270;28;68526;-60
2021/08/05 00:32:29;;;;;;;;;4.25;4.00;;;;;18.86;64.37;100367.03;5017525;28;55611;-61
2021/08/05 00:34:54;;;;;;;;;4.00;3.00;;;;;18.87;64.45;100363.34;5017031;28;72266;-60
2021/08/05 00:37:20;;;;;;;;;4.00;4.00;;;;;18.89;64.61;100368.50;5017236;28;67796;-61
2021/08/05 00:39:45;;;;;;;;;4.75;4.75;;;;;18.90;64.60;100365.63;5017269;28;68774;-61
2021/08/05 00:42:10;;;;;;;;;6.00;4.00;;;;;18.90;64.69;100356.84;5016874;28;75568;-61
2021/08/05 00:44:36;;;;;;;;;4.00;4.00;;;;;18.90;64.63;100360.31;5017730;28;46670;-61
2021/08/05 00:47:03;;;;;;;;;5.75;3.50;;;;;18.90;64.41;100362.16;5017986;28;45249;-61
2021/08/05 00:49:29;;;;;;;;;3.75;3.00;;;;;18.89;64.47;100352.53;5017774;28;45300;-60
2021/08/05 00:51:54;;;;;;;;;4.00;3.25;;;;;18.88;65.02;100359.69;5015415;28;73431;-61
2021/08/05 00:54:19;;;;;;;;;3.00;3.00;;;;;18.86;64.66;100356.38;5017774;28;45285;-61
2021/08/05 00:56:45;;;;;;;;;5.75;4.25;;;;;18.87;64.61;100354.56;5015544;28;68237;-60
2021/08/05 00:59:10;;;;;;;;;7.50;5.00;;;;;18.87;64.63;100357.22;5016647;28;67909;-60
2021/08/05 01:01:54;;;;;;;;;5.00;5.00;;;;;18.87;64.54;100355.38;5015454;28;71769;-61
2021/08/05 01:04:19;;;;;;;;;5.75;5.75;;;;;18.88;64.82;100357.00;5016012;28;45898;-61
2021/08/05 01:07:01;;;;;;;;;6.25;5.25;;;;;18.87;64.89;100354.56;5016400;28;69303;-61
2021/08/05 01:09:41;;;;;;;;;7.50;6.00;;;;;18.87;64.76;100357.22;5016078;28;45443;-61
2021/08/05 01:12:15;;;;;;;;;6.00;6.00;;;;;18.87;64.92;100357.22;5015974;28;45295;-61
2021/08/05 01:14:41;;;;;;;;;4.00;4.00;;;;;18.87;65.14;100359.88;5015856;28;54555;-60
2021/08/05 01:17:08;;;;;;;;;6.50;6.00;;;;;18.87;64.78;100365.22;5016421;28;45417;-61
2021/08/05 01:19:41;;;;;;;;;5.50;4.00;;;;;18.88;64.88;100357.00;5016418;28;45688;-60
2021/08/05 01:22:12;;;;;;;;;7.25;6.00;;;;;18.88;64.61;100349.03;5016997;28;52194;-60
2021/08/05 01:24:38;;;;;;;;;6.00;6.00;;;;;18.89;65.08;100347.19;5017217;28;45698;-61
2021/08/05 01:27:03;;;;;;;;;4.00;4.00;;;;;18.90;64.80;100346.19;4999733;28;45431;-61
2021/08/05 01:29:32;;;;;;;;;4.50;3.25;;;;;18.89;64.84;100345.34;5017213;28;45502;-61
2021/08/05 01:31:57;;;;;;;;;4.00;4.00;;;;;18.90;64.78;100341.66;5015894;28;46066;-61
2021/08/05 01:34:23;;;;;;;;;3.25;3.25;;;;;18.91;64.82;100335.34;4999398;28;45274;-61
2021/08/05 01:36:48;;;;;;;;;5.00;4.00;;;;;18.90;64.83;100341.66;5016261;28;65140;-61
2021/08/05 01:39:14;;;;;;;;;4.00;3.75;;;;;18.89;65.06;100332.03;4998447;28;69434;-61
2021/08/05 01:41:40;;;;;;;;;4.00;4.00;;;;;18.88;64.76;100330.41;5017059;28;46035;-61
2021/08/05 01:44:06;;;;;;;;;6.75;4.00;;;;;18.87;64.89;100341.25;5016669;28;45910;-60
2021/08/05 01:46:31;;;;;;;;;3.00;3.00;;;;;18.82;65.32;100334.69;5015638;28;45447;-60
2021/08/05 01:48:57;;;;;;;;;4.00;3.75;;;;;18.81;65.44;100340.22;5014871;28;70438;-61
2021/08/05 01:51:22;;;;;;;;;5.00;4.00;;;;;18.79;65.70;100345.72;5015302;28;48642;-61
2021/08/05 01:53:51;;;;;;;;;4.00;3.50;;;;;18.77;65.10;100341.63;4998525;28;59873;-62
2021/08/05 01:56:20;;;;;;;;;4.00;4.00;;;;;18.79;65.57;100343.03;5015421;28;45506;-61
2021/08/05 01:58:45;;;;;;;;;4.00;4.00;;;;;18.80;65.58;100339.38;5016219;28;45523;-61
2021/08/05 02:01:10;;;;;;;;;7.00;4.75;;;;;18.80;65.65;100336.72;5016723;28;45900;-60
2021/08/05 02:03:37;;;;;;;;;5.50;3.25;;;;;18.82;65.38;100333.84;5015732;28;70567;-61
2021/08/05 02:06:15;;;;;;;;;4.00;4.00;;;;;18.84;65.18;100326.47;5016897;28;45366;-60
2021/08/05 02:08:53;;;;;;;;;3.75;3.75;;;;;18.87;65.24;100319.97;5015214;28;51042;-61
2021/08/05 02:11:22;;;;;;;;;5.00;5.00;;;;;18.89;65.08;100313.41;4998189;28;45421;-61
2021/08/05 02:13:47;;;;;;;;;4.25;4.25;;;;;18.91;64.95;100307.91;5016630;28;45875;-60
2021/08/05 02:16:13;;;;;;;;;7.00;5.50;;;;;18.91;65.06;100314.03;5014394;28;69344;-60
2021/08/05 02:18:43;;;;;;;;;5.75;4.00;;;;;18.91;65.01;100307.91;5016336;28;45220;-60
2021/08/05 02:21:09;;;;;;;;;4.00;3.50;;;;;18.91;65.02;100308.72;4998764;28;45429;-61
2021/08/05 02:23:34;;;;;;;;;5.25;4.00;;;;;18.91;65.01;100302.56;4997740;28;73200;-61
2021/08/05 02:25:59;;;;;;;;;4.50;4.50;;;;;18.89;65.20;100302.75;4997825;28;69491;-60
2021/08/05 02:28:25;;;;;;;;;4.00;4.00;;;;;18.86;64.90;100295.16;5015549;28;68896;-60
2021/08/05 02:30:54;;;;;;;;;5.00;4.00;;;;;18.83;65.06;100299.06;5014142;28;75013;-61
2021/08/05 02:33:20;;;;;;;;;3.75;3.75;;;;;18.83;65.45;100298.22;5016151;28;46309;-61
2021/08/05 02:35:45;;;;;;;;;5.00;4.50;;;;;18.81;65.14;100286.97;4998394;28;45396;-61
2021/08/05 02:38:11;;;;;;;;;6.50;4.00;;;;;18.77;65.34;100291.84;5015157;28;45289;-61
2021/08/05 02:40:36;;;;;;;;;7.25;5.00;;;;;18.76;65.22;100289.41;5014575;28;45411;-61
2021/08/05 02:43:02;;;;;;;;;3.75;3.75;;;;;18.74;65.66;100286.13;5014516;28;58298;-61
2021/08/05 02:45:28;;;;;;;;;4.25;4.25;;;;;18.69;65.75;100289.34;4998615;28;45279;-61
2021/08/05 02:47:53;;;;;;;;;3.50;3.50;;;;;18.66;66.01;100289.72;5014104;28;69053;-61
2021/08/05 02:50:18;;;;;;;;;4.25;4.00;;;;;18.67;65.83;100294.03;4997504;28;72419;-60
2021/08/05 02:52:44;;;;;;;;;3.75;3.75;;;;;18.67;65.71;100297.53;5013791;28;73287;-60
2021/08/05 02:55:09;;;;;;;;;4.75;4.50;;;;;18.68;65.89;100295.69;5014047;28;64082;-61
2021/08/05 02:57:35;;;;;;;;;5.75;4.50;;;;;18.68;66.04;100291.19;5016157;28;45216;-60
2021/08/05 03:00:01;;;;;;;;;4.50;4.25;;;;;18.67;65.83;100284.22;5015722;28;45292;-61
2021/08/05 03:02:26;;;;;;;;;3.25;3.25;;;;;18.68;65.76;100293.84;4998141;28;49076;-61
2021/08/05 03:04:51;;;;;;;;;2.50;2.50;;;;;18.67;66.02;100292.22;5015480;28;57382;-60
2021/08/05 03:07:17;;;;;;;;;4.00;4.00;;;;;18.67;65.83;100283.41;5016028;28;45289;-61
2021/08/05 03:09:42;;;;;;;;;5.50;5.00;;;;;18.66;66.14;100277.25;5015783;28;45561;-61
2021/08/05 03:12:08;;;;;;;;;4.00;4.00;;;;;18.67;65.86;100283.41;5015741;28;45436;-60
2021/08/05 03:14:33;;;;;;;;;4.00;3.75;;;;;18.68;66.01;100279.72;5015969;28;45556;-61
2021/08/05 03:16:59;;;;;;;;;3.00;3.00;;;;;18.68;66.22;100290.34;5015002;28;64733;-61
2021/08/05 03:19:25;;;;;;;;;4.25;4.25;;;;;18.67;66.11;100283.41;5015628;28;46146;-60
2021/08/05 03:21:50;;;;;;;;;5.00;5.00;;;;;18.66;66.36;100282.59;5015214;28;60170;-61
2021/08/05 03:24:15;;;;;;;;;5.50;4.00;;;;;18.66;66.02;100281.75;5014878;28;66562;-61
2021/08/05 03:26:41;;;;;;;;;5.00;4.50;;;;;18.66;66.11;100282.59;5014710;28;69700;-61
2021/08/05 03:29:07;;;;;;;;;4.00;4.00;;;;;18.66;66.15;100265.78;5014582;28;71077;-60
2021/08/05 03:31:32;;;;;;;;;5.75;4.25;;;;;18.65;66.42;100261.47;5017307;28;45466;-61
2021/08/05 03:33:57;;;;;;;;;5.50;5.00;;;;;18.67;65.87;100264.75;5018997;28;45788;-61
2021/08/05 03:36:23;;;;;;;;;6.50;5.00;;;;;18.65;66.39;100267.63;5018342;28;57798;-60
2021/08/05 03:38:48;;;;;;;;;7.75;7.25;;;;;18.65;66.33;100270.28;5017920;28;74570;-61
2021/08/05 03:41:13;;;;;;;;;7.75;6.75;;;;;18.64;66.34;100262.50;5017840;28;73112;-61
2021/08/05 03:43:39;;;;;;;;;5.00;5.00;;;;;18.65;66.55;100253.50;5018096;28;68353;-62
2021/08/05 03:46:04;;;;;;;;;7.00;5.50;;;;;18.65;66.40;100262.31;5017883;28;70418;-61
2021/08/05 03:48:29;;;;;;;;;5.00;4.00;;;;;18.64;66.40;100257.16;5018820;28;45221;-61
2021/08/05 03:50:55;;;;;;;;;6.00;5.75;;;;;18.63;66.50;100250.22;5018201;28;59128;-61
2021/08/05 03:53:20;;;;;;;;;5.00;4.00;;;;;18.60;66.70;100247.94;5018842;28;45228;-61
2021/08/05 03:55:46;;;;;;;;;5.25;4.25;;;;;18.60;66.75;100242.63;5017856;28;63051;-61
2021/08/05 03:58:11;;;;;;;;;5.75;5.75;;;;;18.60;66.55;100253.25;5017371;28;45246;-60
2021/08/05 04:00:37;;;;;;;;;5.00;5.00;;;;;18.59;66.71;100249.78;5018353;28;45164;-61
2021/08/05 04:03:03;;;;;;;;;4.00;4.00;;;;;18.56;66.82;100241.38;5018608;28;45435;-61
2021/08/05 04:05:29;;;;;;;;;5.25;5.25;;;;;18.56;66.94;100250.19;5017636;28;70455;-61
2021/08/05 04:07:54;;;;;;;;;6.00;4.00;;;;;18.56;66.21;100252.00;5017884;28;58558;-60
2021/08/05 04:10:19;;;;;;;;;4.75;4.00;;;;;18.52;66.78;100249.75;5017943;28;55529;-60
2021/08/05 04:12:45;;;;;;;;;6.00;5.00;;;;;18.49;66.89;100247.50;5017521;28;67964;-61
2021/08/05 04:15:10;;;;;;;;;4.50;4.50;;;;;18.46;66.79;100249.72;5018421;28;45486;-60
2021/08/05 04:17:36;;;;;;;;;5.50;3.75;;;;;18.42;67.00;100249.28;5018230;28;46184;-61
2021/08/05 04:20:03;;;;;;;;;4.00;4.00;;;;;18.38;67.02;100248.03;5018346;28;45368;-60
2021/08/05 04:22:28;;;;;;;;;7.50;6.00;;;;;18.35;67.28;100251.06;5018063;28;47275;-61
2021/08/05 04:24:54;;;;;;;;;6.00;4.00;;;;;18.34;67.32;100260.06;5017312;28;68673;-60
2021/08/05 04:27:19;;;;;;;;;5.50;3.50;;;;;18.32;67.38;100254.94;5017275;28;73657;-60
2021/08/05 04:29:44;;;;;;;;;7.00;5.50;;;;;18.29;67.32;100250.00;5017169;28;72346;-61
2021/08/05 04:32:10;;;;;;;;;4.25;4.00;;;;;18.30;67.38;100253.50;5018021;28;45462;-61
2021/08/05 04:34:35;;;;;;;;;7.75;4.50;;;;;18.31;67.47;100252.47;5018106;28;45490;-60
2021/08/05 04:37:00;;;;;;;;;5.00;5.00;;;;;18.31;67.35;100247.97;5017062;28;67369;-61
2021/08/05 04:39:26;;;;;;;;;6.50;4.50;;;;;18.30;67.22;100256.16;5016951;28;72610;-61
2021/08/05 04:41:51;;;;;;;;;5.00;4.75;;;;;18.29;67.48;100243.88;5018052;28;45301;-61
2021/08/05 04:44:17;;;;;;;;;5.00;4.00;;;;;18.26;67.59;100244.25;5017206;28;66174;-60
2021/08/05 04:46:42;;;;;;;;;5.25;5.25;;;;;18.26;67.61;100244.25;5017087;28;65514;-61
2021/08/05 04:49:07;;;;;;;;;7.00;4.75;;;;;18.26;67.59;100247.75;5016666;28;72749;-61
2021/08/05 04:51:33;;;;;;;;;5.50;4.75;;;;;18.27;67.69;100249.41;5016770;28;67905;-61
2021/08/05 04:54:02;;;;;;;;;5.50;5.00;;;;;18.29;67.75;100250.00;5016957;28;68157;-60
2021/08/05 04:56:28;;;;;;;;;5.00;4.00;;;;;18.30;67.56;100243.66;5017582;28;46252;-61
2021/08/05 04:58:54;;;;;;;;;6.50;4.00;;;;;18.28;67.74;100237.72;5017237;28;49967;-61
2021/08/05 05:01:19;;;;;;;;;6.75;5.00;;;;;18.30;67.66;100237.53;5017825;28;45674;-60
2021/08/05 05:03:45;;;;;;;;;4.00;3.50;;;;;18.30;67.75;100230.38;5017271;28;57503;-60
2021/08/05 05:06:10;;;;;;;;;4.75;4.75;;;;;18.34;67.63;100238.78;5016294;28;75664;-61
2021/08/05 05:08:35;;;;;;;;;7.00;5.00;;;;;18.34;67.71;100244.13;5016499;28;73182;-60
2021/08/05 05:11:01;;;;;;;;;5.50;4.75;;;;;18.34;67.18;100247.59;5016695;28;63809;-61
2021/08/05 05:13:27;;;;;;;;;6.75;5.00;;;;;18.35;67.78;100248.41;5017403;28;45165;-60
2021/08/05 05:15:52;;;;;;;;;17.75;17.75;;;;;18.35;67.90;100251.88;5017152;28;46531;-60
2021/08/05 05:18:20;;;;;;;;;6.25;5.00;;;;;18.35;67.92;100251.06;5017367;28;45394;-60
2021/08/05 05:20:45;;;;;;;;;4.75;4.00;;;;;18.33;67.89;100250.44;5017409;28;45312;-61
2021/08/05 05:23:10;;;;;;;;;6.75;5.00;;;;;18.35;68.04;100259.06;5016450;28;66794;-60
2021/08/05 05:25:37;;;;;;;;;7.00;5.00;;;;;18.34;68.00;100252.91;5017227;28;45375;-60
2021/08/05 05:28:02;;;;;;;;;10.75;5.50;;;;;18.34;68.12;100252.09;5017229;28;45326;-60
2021/08/05 05:30:28;;;;;;;;;4.75;4.00;;;;;18.35;68.11;100259.06;5017126;28;45214;-60
2021/08/05 05:32:53;;;;;;;;;6.00;6.00;;;;;18.35;68.30;100251.06;5016116;28;64929;-61
2021/08/05 05:35:18;;;;;;;;;7.50;5.00;;;;;18.37;68.38;100257.03;5016343;28;64618;-61
2021/08/05 05:37:45;;;;;;;;;6.00;5.00;;;;;18.38;68.20;100253.34;5016992;28;45238;-61
2021/08/05 05:40:11;;;;;;;;;6.25;5.75;;;;;18.38;68.24;100248.03;5017129;28;45250;-61
2021/08/05 05:42:36;;;;;;;;;5.75;5.75;;;;;18.40;68.07;100253.97;5016915;28;45439;-60
2021/08/05 05:45:02;;;;;;;;;6.00;5.00;;;;;18.41;68.17;100252.97;5016921;28;45333;-60
2021/08/05 05:47:28;;;;;;;;;5.25;4.00;;;;;18.43;68.39;100248.28;5015499;28;45854;-61
2021/08/05 05:49:54;;;;;;;;;5.75;5.00;;;;;18.44;68.59;100249.06;5016860;28;45597;-60
2021/08/05 05:52:20;;;;;;;;;5.00;5.00;;;;;18.46;68.36;100253.19;5016828;28;45511;-60
2021/08/05 05:54:45;;;;;;;;;5.75;5.00;;;;;18.50;68.26;100253.63;5015984;28;46207;-61
2021/08/05 05:57:11;;;;;;;;;6.75;6.00;;;;;18.52;68.25;100264.88;5016452;28;47620;-61
2021/08/05 05:59:36;;;;;;;;;6.00;6.00;;;;;18.55;68.12;100264.50;5015699;28;67486;-61
2021/08/05 06:02:02;;;;;;;;;6.75;6.75;;;;;18.57;67.88;100266.94;5016599;28;45375;-61
2021/08/05 06:04:28;;;;;;;;;7.50;6.25;;;;;18.59;68.06;100263.09;5016419;28;47120;-60
2021/08/05 06:06:54;;;;;;;;;7.00;7.00;;;;;18.62;67.96;100267.19;5016635;28;45383;-61
2021/08/05 06:09:19;;;;;;;;;8.00;7.00;;;;;18.64;68.11;100263.34;5015450;28;45258;-60
2021/08/05 06:11:46;;;;;;;;;6.50;6.00;;;;;18.67;68.46;100270.94;5014426;28;69226;-60
2021/08/05 06:14:11;;;;;;;;;7.00;7.00;;;;;18.70;68.12;100272.34;5015305;28;46096;-60
2021/08/05 06:16:36;;;;;;;;;5.00;5.00;;;;;18.72;68.19;100272.19;5016526;28;45298;-60
2021/08/05 06:19:02;;;;;;;;;5.00;5.00;;;;;18.74;68.10;100272.81;5016366;28;45512;-60
2021/08/05 06:21:28;;;;;;;;;5.00;5.00;;;;;18.75;67.99;100272.59;5016324;28;45420;-61
2021/08/05 06:23:53;;;;;;;;;8.25;7.00;;;;;18.77;68.10;100267.91;5016013;28;50333;-60
2021/08/05 06:26:22;;;;;;;;;8.25;5.50;;;;;18.81;67.89;100279.00;5016033;28;45342;-60
2021/08/05 06:28:47;;;;;;;;;8.00;6.50;;;;;18.84;68.11;100275.91;5016463;28;45476;-60
2021/08/05 06:31:13;;;;;;;;;6.25;5.25;;;;;18.87;67.93;100280.03;5016143;28;50879;-60
2021/08/05 06:33:39;;;;;;;;;7.00;6.00;;;;;18.89;68.04;100283.31;5015977;28;45418;-61
2021/08/05 06:36:04;;;;;;;;;6.25;5.75;;;;;18.89;68.15;100281.47;5015158;28;72197;-61
2021/08/05 06:38:30;;;;;;;;;7.75;6.25;;;;;18.90;68.06;100285.78;5016248;28;45376;-60
2021/08/05 06:40:55;;;;;;;;;8.50;7.75;;;;;18.93;67.62;100276.59;5016288;28;45220;-60
2021/08/05 06:43:20;;;;;;;;;7.00;7.00;;;;;18.95;67.62;100279.88;5016101;28;45374;-61
2021/08/05 06:45:46;;;;;;;;;9.50;6.00;;;;;18.97;67.71;100289.31;5015892;28;45325;-60
2021/08/05 06:48:11;;;;;;;;;7.00;6.00;;;;;19.00;67.83;100281.97;5016203;28;45685;-60
2021/08/05 06:50:37;;;;;;;;;14.25;12.75;;;;;19.01;66.80;100284.44;5015193;28;61933;-60
2021/08/05 06:53:02;;;;;;;;;9.00;9.00;;;;;19.02;67.25;100279.91;5015609;28;45965;-61
2021/08/05 06:55:27;;;;;;;;;10.75;8.25;;;;;19.05;67.11;100282.19;5015105;28;67076;-61
2021/08/05 06:57:53;;;;;;;;;16.25;10.75;;;;;19.07;66.10;100280.16;5015245;28;59416;-61
2021/08/05 07:00:18;;;;;;;;;14.50;12.00;;;;;19.08;65.84;100274.59;5014712;28;69379;-60
2021/08/05 07:02:43;;;;;;;;;9.75;9.25;;;;;19.10;65.78;100267.25;5015015;28;70851;-61
2021/08/05 07:05:10;;;;;;;;;11.50;11.25;;;;;19.12;65.51;100270.53;5015895;28;45324;-60
2021/08/05 07:07:35;;;;;;;;;19.50;13.75;;;;;19.16;65.42;100270.97;5019088;28;45344;-60
2021/08/05 07:10:02;;;;;;;;;16.00;14.25;;;;;19.18;65.61;100265.44;5018623;28;62841;-61
2021/08/05 07:12:27;;;;;;;;;12.75;11.25;;;;;19.22;65.06;100266.69;5019191;28;46088;-59
2021/08/05 07:14:53;;;;;;;;;13.75;11.00;;;;;19.23;64.94;100263.81;5018021;28;45274;-61
2021/08/05 07:17:18;;;;;;;;;13.50;12.25;;;;;19.25;65.01;100267.13;5018607;28;59023;-60
2021/08/05 07:19:44;;;;;;;;;14.00;14.00;;;;;19.31;65.08;100267.34;5017046;28;64533;-60
2021/08/05 07:22:10;;;;;;;;;10.75;10.25;;;;;19.33;64.79;100268.75;5018882;28;46346;-61
2021/08/05 07:24:35;;;;;;;;;15.50;12.00;;;;;19.36;64.70;100275.53;5019007;28;45320;-61
2021/08/05 07:27:00;;;;;;;;;16.50;13.25;;;;;19.39;64.35;100278.63;5018164;28;68253;-60
2021/08/05 07:29:28;;;;;;;;;15.75;14.00;;;;;19.45;64.18;100273.50;5019029;28;45636;-61
2021/08/05 07:31:54;;;;;;;;;14.00;11.00;;;;;19.49;63.87;100275.56;5017563;28;47261;-60
2021/08/05 07:34:19;;;;;;;;;14.25;11.75;;;;;19.54;64.39;100272.31;5018031;28;71879;-60
2021/08/05 07:36:44;;;;;;;;;16.00;12.50;;;;;19.58;63.47;100276.22;5017856;28;67580;-60
2021/08/05 07:39:11;;;;;;;;;17.00;11.75;;;;;19.61;63.41;100275.78;5017851;28;69316;-61
2021/08/05 07:41:38;;;;;;;;;13.50;12.50;;;;;19.66;62.88;100276.00;5018633;28;45390;-60
2021/08/05 07:44:03;;;;;;;;;13.75;12.25;;;;;19.70;63.15;100271.91;5018701;28;45758;-60
2021/08/05 07:46:29;;;;;;;;;14.75;14.00;;;;;19.76;62.63;100275.63;5018627;28;45222;-60
2021/08/05 07:48:54;;;;;;;;;17.25;13.50;;;;;19.81;62.34;100270.50;5017703;28;69422;-60
2021/08/05 07:51:19;;;;;;;;;14.00;13.00;;;;;19.85;61.45;100270.91;5017540;28;74639;-61
2021/08/05 07:53:45;;;;;;;;;15.25;12.25;;;;;19.89;61.39;100269.50;5018317;28;45225;-60
2021/08/05 07:56:10;;;;;;;;;14.25;12.00;;;;;19.94;61.78;100266.22;5018597;28;45822;-60
2021/08/05 07:58:37;;;;;;;;;14.75;13.25;;;;;20.01;61.40;100264.38;5018318;28;45193;-60
2021/08/05 08:01:02;;;;;;;;;13.75;10.00;;;;;20.05;60.71;100262.13;5018403;28;47075;-61
2021/08/05 08:03:28;;;;;;;;;13.00;10.00;;;;;20.09;60.90;100261.50;5017854;28;62362;-61
2021/08/05 08:05:53;;;;;;;;;12.50;11.50;;;;;20.16;60.83;100266.81;5018605;28;45627;-61
2021/08/05 08:08:19;;;;;;;;;19.00;11.25;;;;;20.21;60.56;100264.34;5018407;28;45503;-60
2021/08/05 08:10:44;;;;;;;;;16.50;13.25;;;;;20.28;60.11;100262.50;5018222;28;46068;-61
2021/08/05 08:13:09;;;;;;;;;11.25;9.50;;;;;20.35;60.15;100257.19;5018223;28;46684;-61
2021/08/05 08:15:35;;;;;;;;;14.25;11.00;;;;;20.43;59.83;100258.81;5018473;28;45499;-61
2021/08/05 08:18:00;;;;;;;;;10.00;9.00;;;;;20.52;59.31;100254.88;5017309;28;56215;-60
2021/08/05 08:20:25;;;;;;;;;14.50;13.25;;;;;20.59;58.66;100252.19;5018115;28;46119;-61
2021/08/05 08:22:51;;;;;;;;;13.25;11.25;;;;;20.68;58.67;100256.28;5017318;28;73376;-60
2021/08/05 08:25:17;;;;;;;;;12.75;12.00;;;;;20.75;58.49;100259.75;5018128;28;45603;-60
2021/08/05 08:27:42;;;;;;;;;12.75;11.00;;;;;20.83;58.46;100257.91;5017474;28;60825;-61
2021/08/05 08:30:09;;;;;;;;;11.25;9.00;;;;;20.90;57.58;100256.84;5016740;28;45840;-60
2021/08/05 08:32:35;;;;;;;;;10.00;10.00;;;;;20.98;57.75;100257.66;5017806;28;45303;-60
2021/08/05 08:35:00;;;;;;;;;9.50;9.50;;;;;21.04;57.20;100254.94;5017997;28;45242;-61
2021/08/05 08:37:26;;;;;;;;;9.25;8.00;;;;;21.14;56.07;100251.00;5017937;28;45550;-61
2021/08/05 08:39:51;;;;;;;;;12.00;11.75;;;;;21.24;55.85;100245.19;5016814;28;75551;-60
2021/08/05 08:42:17;;;;;;;;;13.25;10.50;;;;;21.33;55.56;100243.88;5017979;28;45249;-61
2021/08/05 08:44:43;;;;;;;;;11.00;9.25;;;;;21.42;54.48;100244.47;5017996;28;45241;-61
2021/08/05 08:47:08;;;;;;;;;11.75;10.25;;;;;21.50;54.74;100239.69;5032819;28;45539;-60
2021/08/05 08:49:34;;;;;;;;;13.75;12.00;;;;;21.62;54.91;100241.69;4999909;28;45329;-60
2021/08/05 08:51:59;;;;;;;;;10.75;8.00;;;;;21.77;54.74;100236.84;5016354;28;45427;-60
2021/08/05 08:54:24;;;;;;;;;12.25;11.25;;;;;21.97;54.57;100240.41;5015588;28;69409;-61
2021/08/05 08:56:52;;;;;;;;;11.50;10.00;;;;;22.19;53.56;100236.28;5000045;28;45345;-61
2021/08/05 08:59:18;;;;;;;;;16.50;13.50;;;;;22.43;53.20;100238.31;5015875;28;48550;-61
2021/08/05 09:01:43;;;;;;;;;12.75;10.00;;;;;22.67;52.84;100234.78;5015177;28;70432;-61
2021/08/05 09:04:09;;;;;;;;;14.75;13.00;;;;;22.90;52.63;100235.13;5016614;28;69662;-61
2021/08/05 09:06:35;;;;;;;;;14.25;13.00;;;;;23.11;51.73;100233.81;5017509;28;45488;-61
2021/08/05 09:09:00;;;;;;;;;13.50;12.00;;;;;23.30;50.66;100234.63;5017477;28;46297;-61
2021/08/05 09:11:26;;;;;;;;;12.50;11.25;;;;;23.45;51.04;100231.50;5017334;28;45361;-61
2021/08/05 09:13:51;;;;;;;;;18.00;12.00;;;;;23.58;50.65;100235.03;5016614;28;57326;-61
2021/08/05 09:16:20;;;;;;;;;11.00;11.00;;;;;23.67;50.26;100239.03;5015342;28;62379;-61
2021/08/05 09:18:45;;;;;;;;;11.25;11.25;;;;;23.72;50.22;100233.78;5017311;28;46117;-61
2021/08/05 09:21:13;;;;;;;;;13.25;13.00;;;;;23.77;49.64;100241.97;5016078;28;72144;-61
2021/08/05 09:23:48;;;;;;;;;13.50;12.50;;;;;23.78;49.52;100240.91;5017511;28;45247;-61
2021/08/05 09:26:40;;;;;;;;;13.25;11.25;;;;;23.81;50.10;100242.31;5017140;28;45327;-61
2021/08/05 09:29:18;;;;;;;;;10.00;10.00;;;;;23.83;49.16;100240.22;5016279;28;45387;-60
2021/08/05 09:32:03;;;;;;;;;11.25;11.00;;;;;23.83;48.45;100249.09;5017019;28;45791;-60
2021/08/05 09:34:44;;;;;;;;;8.50;7.25;;;;;23.80;48.25;100238.81;5017320;28;45304;-61
2021/08/05 09:37:11;;;;;;;;;10.00;9.00;;;;;23.79;47.79;100237.19;5017159;28;45434;-61
2021/08/05 09:39:45;;;;;;;;;7.75;7.75;;;;;23.78;48.43;100245.44;5016988;28;46973;-61
2021/08/05 09:42:14;;;;;;;;;12.00;9.25;;;;;23.74;48.49;100247.78;5016817;28;45776;-60
2021/08/05 09:44:41;;;;;;;;;9.00;7.75;;;;;23.69;48.40;100242.28;5017164;28;45403;-61
2021/08/05 09:47:16;;;;;;;;;10.25;10.25;;;;;23.65;48.60;100241.91;5017006;28;45550;-61
2021/08/05 09:49:49;;;;;;;;;10.75;9.00;;;;;23.59;48.84;100239.34;5016606;28;45302;-61
2021/08/05 09:52:16;;;;;;;;;8.25;8.25;;;;;23.59;48.81;100247.41;5016877;28;45835;-61
2021/08/05 09:54:48;;;;;;;;;10.50;9.00;;;;;23.63;48.16;100238.66;5016709;28;45399;-61
2021/08/05 09:57:30;;;;;;;;;9.00;8.25;;;;;23.78;48.98;100242.75;5016720;28;45253;-61
2021/08/05 10:00:00;;;;;;;;;12.00;10.00;;;;;23.92;47.68;100232.63;5015138;28;46190;-62
2021/08/05 10:02:26;;;;;;;;;9.50;9.50;;;;;24.02;47.30;100243.63;5016272;28;45918;-61
2021/08/05 10:04:52;;;;;;;;;11.75;10.00;;;;;24.12;47.25;100235.81;5015261;28;45338;-61
2021/08/05 10:07:18;;;;;;;;;9.50;8.00;;;;;24.23;47.03;100233.38;5016445;28;45498;-60
2021/08/05 10:09:44;;;;;;;;;12.75;10.75;;;;;24.34;46.38;100229.88;5014610;28;52982;-61
2021/08/05 10:12:23;;;;;;;;;8.50;8.25;;;;;24.51;46.61;100231.81;5016082;28;45356;-61
2021/08/05 10:14:50;;;;;;;;;10.75;8.50;;;;;24.70;45.83;100227.91;5016390;28;45319;-61
2021/08/05 10:17:16;;;;;;;;;11.00;11.00;;;;;24.89;44.71;100217.84;5016488;28;45266;-61
2021/08/05 10:19:43;;;;;;;;;8.25;8.25;;;;;25.02;44.42;100218.59;5016157;28;45974;-61
2021/08/05 10:22:10;;;;;;;;;10.25;8.50;;;;;25.10;44.86;100218.22;5016347;28;45914;-61
2021/08/05 10:24:37;;;;;;;;;11.75;11.00;;;;;25.23;44.11;100218.97;5016269;28;45462;-61
2021/08/05 10:27:07;;;;;;;;;8.50;8.50;;;;;25.35;44.48;100200.91;5016369;28;45531;-61
2021/08/05 10:29:33;;;;;;;;;11.00;10.00;;;;;25.52;43.42;100208.19;5016101;28;45344;-61
2021/08/05 10:31:59;;;;;;;;;11.00;10.00;;;;;25.60;43.59;100208.59;5015957;28;45270;-61
2021/08/05 10:34:24;;;;;;;;;7.25;7.25;;;;;25.66;43.36;100204.13;5014948;28;45256;-61
2021/08/05 10:36:50;;;;;;;;;8.00;8.00;;;;;25.80;42.73;100196.53;5013851;28;70322;-61
2021/08/05 10:39:16;;;;;;;;;9.75;9.75;;;;;25.96;42.52;100200.25;5016029;28;45355;-61
2021/08/05 10:41:41;;;;;;;;;8.25;8.25;;;;;26.10;41.87;100187.25;5017985;28;51091;-61
2021/08/05 10:44:07;;;;;;;;;8.25;7.25;;;;;26.21;41.68;100194.44;5017775;28;63970;-61
2021/08/05 10:46:35;;;;;;;;;7.25;7.25;;;;;26.34;41.33;100195.16;5000963;28;69812;-61
2021/08/05 10:49:03;;;;;;;;;6.25;6.25;;;;;26.47;41.51;100183.19;5019496;28;45401;-61
2021/08/05 10:51:41;;;;;;;;;11.50;10.00;;;;;26.60;40.82;100176.59;5000904;28;45459;-61
2021/08/05 10:54:06;;;;;;;;;8.00;7.00;;;;;26.69;40.64;100174.28;5001874;28;45361;-61
2021/08/05 10:56:32;;;;;;;;;7.00;7.00;;;;;26.77;40.99;100179.19;5019315;28;45502;-61
2021/08/05 10:59:00;;;;;;;;;7.75;7.75;;;;;26.78;40.30;100170.88;5018931;28;45357;-61
2021/08/05 11:01:42;;;;;;;;;7.00;7.00;;;;;26.76;39.99;100181.09;5019312;28;45879;-61
2021/08/05 11:04:07;;;;;;;;;7.00;6.00;;;;;26.69;39.56;100179.66;5018544;28;45355;-61
2021/08/05 11:06:33;;;;;;;;;5.25;5.25;;;;;26.61;40.49;100178.22;5018440;28;70314;-61
2021/08/05 11:09:23;;;;;;;;;6.00;6.00;;;;;26.52;40.71;100175.16;5019120;28;45879;-61
2021/08/05 11:11:49;;;;;;;;;8.75;7.50;;;;;26.47;40.10;100172.41;5019070;28;49216;-61
2021/08/05 11:14:17;;;;;;;;;7.50;7.50;;;;;26.42;40.57;100165.09;5018608;28;52237;-62
2021/08/05 11:17:02;;;;;;;;;6.00;6.00;;;;;26.47;40.62;100167.84;5019321;28;45356;-62
2021/08/05 11:19:33;;;;;;;;;6.00;5.00;;;;;26.57;40.13;100156.38;5018981;28;45280;-62